Latest Weather Observations for Charlton

IDV60801

Issued at 1:03 pm EDT Saturday 21 January 2017 (issued every 30 minutes, with the page automatically refreshed every 10 minutes)

About weather observations | Map of weather stations | Latest weather observations for VIC | Other Formats
Station Details ID: 080128 Name: CHARLTON Lat: -36.28 Lon: 143.33 Height: 131.7 m
Data from the previous 72 hours. | See also: Recent months at Charlton
Date/Time
EDT
Temp
°C
App
Temp
°C
Dew
Point
°C
Rel
Hum
%
Delta-T
°C
Wind Press
QNH
hPa
Press
MSL
hPa
Rain since
9am
mm
Dir  Spd
km/h
Gust
km/h
Spd
kts
Gust
kts
21/01:00pm 23.9 20.2 7.9 36 8.5 SE 17 32 9 17 1014.4 1013.8 0.0
21/12:30pm 23.8 20.2 8.2 37 8.3 SSE 17 26 9 14 1014.6 1014.0 0.0
21/12:00pm 22.9 19.6 8.2 39 7.8 S 15 22 8 12 1014.9 1014.3 0.0
21/11:30am 20.2 16.1 7.9 45 6.4 SSE 19 28 10 15 1015.1 1014.5 0.0
21/11:00am 20.1 17.4 8.8 48 6.0 S 13 24 7 13 1015.4 1014.8 0.0
21/10:30am 18.8 15.9 8.2 50 5.5 SSE 13 20 7 11 1015.4 1014.8 0.0
21/10:00am 17.9 14.4 8.7 55 4.8 SE 17 24 9 13 1015.5 1014.9 0.0
21/09:30am 16.2 14.2 8.7 61 3.9 S 9 17 5 9 1015.5 1014.9 0.0
21/09:00am 14.9 13.1 9.3 69 2.9 SSW 9 13 5 7 1015.5 1014.9 0.0
21/08:30am 13.6 12.1 9.3 75 2.2 SSW 7 11 4 6 1015.0 1014.4 0.0
21/08:00am 12.4 11.1 9.1 80 1.7 SSW 6 9 3 5 1014.7 1014.1 0.0
21/07:30am 10.5 9.4 8.4 87 1.0 SW 4 7 2 4 1014.2 1013.6 0.0
21/07:00am 8.8 8.3 8.0 95 0.4 CALM 0 0 0 0 1013.8 1013.2 0.0
21/06:30am 8.6 6.9 7.7 94 0.4 WSW 6 7 3 4 1013.5 1012.9 0.0
21/06:00am 9.0 7.3 7.6 91 0.7 W 6 7 3 4 1013.1 1012.5 0.0
21/05:30am 9.6 7.7 7.7 88 0.9 SSW 7 11 4 6 1012.6 1012.0 0.0
21/05:00am 9.9 7.7 7.8 87 1.0 SSW 9 13 5 7 1012.4 1011.8 0.0
21/04:30am 9.6 7.9 7.5 87 1.0 S 6 11 3 6 1012.3 1011.7 0.0
21/04:00am 10.3 8.2 8.2 87 1.0 SSW 9 13 5 7 1011.9 1011.3 0.0
21/03:30am 10.6 8.5 8.2 85 1.2 SSW 9 15 5 8 1011.9 1011.3 0.0
21/03:00am 10.2 8.4 8.0 86 1.1 S 7 11 4 6 1011.9 1011.3 0.0
21/02:30am 10.6 8.5 8.2 85 1.2 S 9 15 5 8 1011.7 1011.1 0.0
21/02:00am 10.9 9.2 8.5 85 1.2 SSW 7 9 4 5 1011.7 1011.1 0.0
21/01:30am 10.5 8.8 7.7 83 1.4 S 6 9 3 5 1011.5 1010.9 0.0
21/01:00am 11.6 9.6 8.8 83 1.4 S 9 13 5 7 1011.1 1010.4 0.0
21/12:30am 11.3 9.8 8.5 83 1.4 S 6 9 3 5 1010.8 1010.1 0.0
21/12:00am 11.7 10.3 8.9 83 1.4 S 6 9 3 5 1010.5 1009.8 0.0
 
Date/Time
EDT
Temp
°C
App
Temp
°C
Dew
Point
°C
Rel
Hum
%
Delta-T
°C
Wind Press
QNH
hPa
Press
MSL
hPa
Rain since
9am
mm
Dir  Spd
km/h
Gust
km/h
Spd
kts
Gust
kts
20/11:30pm 12.3 11.0 9.1 81 1.6 S 6 9 3 5 1010.1 1009.5 0.0
20/11:00pm 13.0 11.5 9.1 77 2.0 S 7 9 4 5 1009.8 1009.2 0.0
20/10:30pm 13.3 12.5 9.7 79 1.9 S 4 6 2 3 1009.4 1008.8 0.0
20/10:00pm 14.1 12.5 8.9 71 2.7 SSW 7 11 4 6 1009.1 1008.5 0.0
20/09:30pm 16.1 13.1 9.3 64 3.5 S 15 22 8 12 1008.5 1007.9 0.0
20/09:00pm 17.1 13.7 9.3 60 4.1 SSW 17 26 9 14 1008.0 1007.4 0.0
20/08:30pm 18.3 15.3 9.4 56 4.7 SSW 15 24 8 13 1007.4 1006.8 0.0
20/08:00pm 19.5 15.7 9.1 51 5.5 SSW 19 28 10 15 1006.8 1006.2 0.0
20/07:30pm 20.7 17.3 9.3 48 6.1 SSW 17 28 9 15 1006.0 1005.4 0.0
20/07:00pm 21.2 16.9 9.4 47 6.4 SSW 22 33 12 18 1005.3 1004.7 0.0
20/06:30pm 22.3 18.2 10.1 46 6.7 SSW 22 35 12 19 1004.6 1003.9 0.0
20/06:00pm 22.0 16.6 9.5 45 6.8 SSW 28 48 15 26 1004.4 1003.7 0.0
20/05:30pm 23.0 18.1 10.1 44 7.1 SSW 26 44 14 24 1004.1 1003.4 0.0
20/05:00pm 23.1 18.4 10.5 45 7.0 SSW 26 43 14 23 1003.8 1003.1 0.0
20/04:30pm 23.6 19.4 11.0 45 7.1 SSW 24 41 13 22 1003.6 1002.9 0.0
20/04:00pm 23.2 18.7 9.9 43 7.3 S 24 41 13 22 1003.4 1002.7 0.0
20/03:30pm 22.8 18.0 10.3 45 6.9 SSW 26 39 14 21 1003.2 1002.5 0.0
20/03:00pm 22.9 18.5 10.3 45 7.0 SSW 24 43 13 23 1003.1 1002.4 0.0
20/02:30pm 22.5 17.8 10.6 47 6.6 SSW 26 44 14 24 1002.9 1002.2 0.0
20/02:10pm 22.2 17.1 10.7 48 6.4 SSW 28 46 15 25 1002.8 1002.1 0.0
20/02:00pm 21.7 17.1 11.1 51 5.9 SSW 26 39 14 21 1002.6 1001.9 0.0
20/01:30pm 21.9 17.8 11.3 51 5.9 SSW 24 44 13 24 1002.1 1001.5 0.0
20/01:00pm 22.2 18.9 12.7 55 5.5 SSW 22 35 12 19 1001.8 1001.2 0.0
20/12:30pm 21.5 17.9 12.9 58 4.9 SSW 24 43 13 23 1001.3 1000.7 0.0
20/12:00pm 20.8 18.4 14.5 67 3.7 SSW 20 32 11 17 1000.6 1000.0 0.0
20/11:30am 20.9 18.8 15.2 70 3.4 SW 20 35 11 19 999.7 999.1 0.0
20/11:00am 20.9 19.3 15.9 73 3.0 SW 19 32 10 17 999.1 998.5 0.0
20/10:30am 20.1 18.8 16.7 81 2.1 SW 19 32 10 17 998.6 998.0 0.0
20/10:00am 19.3 18.6 17.3 88 1.2 WSW 17 30 9 16 998.1 997.5 0.0
20/09:30am 18.2 17.1 17.7 97 0.3 WSW 20 32 11 17 998.0 997.4 0.0
20/09:00am 18.4 17.8 18.4 100 0.0 W 19 28 10 15 997.7 997.0 22.4
20/08:30am 18.3 18.8 18.3 100 0.0 W 13 24 7 13 997.4 996.7 22.4
20/08:00am 17.8 18.4 17.8 100 0.0 W 11 20 6 11 997.2 996.5 22.2
20/07:30am 17.0 17.3 17.0 100 0.0 NNE 11 17 6 9 995.7 995.0 21.8
20/07:00am 17.0 17.3 17.0 100 0.0 NNE 11 15 6 8 995.3 994.6 18.4
20/06:30am 17.0 17.7 17.0 100 0.0 NNE 9 15 5 8 995.2 994.5 17.2
20/06:00am 16.2 16.2 16.2 100 0.0 NE 11 17 6 9 995.2 994.5 17.2
20/05:30am 15.9 15.8 15.9 100 0.0 ENE 11 17 6 9 996.1 995.4 14.8
20/05:00am 15.9 15.3 15.7 99 0.1 ESE 13 19 7 10 997.7 997.0 10.6
20/04:30am 16.6 14.8 15.6 94 0.6 SSW 19 35 10 19 997.7 997.0 4.6
20/04:00am 17.4 17.7 15.9 91 0.9 SSE 9 15 5 8 996.2 995.5 3.8
20/03:30am 17.0 16.3 15.5 91 0.9 SE 13 19 7 10 996.5 995.8 3.8
20/03:00am 17.5 17.0 16.0 91 0.9 SSE 13 20 7 11 997.0 996.3 3.8
20/02:30am 17.8 17.3 15.8 88 1.2 SSE 13 20 7 11 997.8 997.1 3.8
20/02:00am 17.5 15.5 15.0 85 1.5 S 19 37 10 20 998.9 998.3 3.6
20/01:52am 18.3 17.0 14.8 80 2.0 SSW 15 35 8 19 999.6 999.0 3.6
20/01:30am 19.3 19.6 15.0 76 2.5 SW 7 11 4 6 999.1 998.5 3.4
20/01:14am 20.5 19.4 13.2 63 4.2 NW 11 22 6 12 999.1 998.5 2.0
20/01:04am 25.9 22.9 9.3 35 9.1 NNE 15 22 8 12 997.8 997.1 0.0
20/01:00am 26.6 22.7 5.5 26 11.0 NE 15 22 8 12 995.7 995.0 0.0
20/12:30am 25.7 22.2 5.3 27 10.5 NE 13 20 7 11 996.9 996.2 0.0
20/12:00am 25.7 22.4 4.8 26 10.7 NE 11 17 6 9 998.1 997.5 0.0
 
Date/Time
EDT
Temp
°C
App
Temp
°C
Dew
Point
°C
Rel
Hum
%
Delta-T
°C
Wind Press
QNH
hPa
Press
MSL
hPa
Rain since
9am
mm
Dir  Spd
km/h
Gust
km/h
Spd
kts
Gust
kts
19/11:30pm 25.1 21.9 5.3 28 10.1 NNE 11 15 6 8 998.7 998.1 0.0
19/11:00pm 23.9 21.8 6.7 33 9.0 NNE 7 9 4 5 999.4 998.8 0.0
19/10:30pm 24.6 22.5 6.8 32 9.3 NNE 7 11 4 6 999.6 999.0 0.0
19/10:00pm 26.0 23.8 6.1 28 10.4 NNE 7 9 4 5 1000.0 999.4 0.0
19/09:30pm 26.4 25.3 6.9 29 10.3 E 2 7 1 4 1000.9 1000.3 0.0
19/09:00pm 26.9 25.5 7.4 29 10.5 NNE 4 7 2 4 1001.5 1000.9 0.0
19/08:30pm 27.7 27.0 7.0 27 11.1 CALM 0 0 0 0 1002.1 1001.5 0.0
19/08:00pm 28.3 26.8 7.0 26 11.5 SW 4 7 2 4 1002.7 1002.0 0.0
19/07:30pm 29.0 26.6 5.1 22 12.5 S 7 9 4 5 1002.7 1002.0 0.0
19/07:00pm 28.7 25.5 4.9 22 12.4 WSW 11 17 6 9 1003.3 1002.6 0.0
19/06:30pm 29.4 25.9 5.5 22 12.6 W 13 20 7 11 1003.9 1003.2 0.0
19/06:00pm 32.3 29.2 1.4 14 15.5 WNW 7 15 4 8 1004.1 1003.4 0.0
19/05:30pm 33.0 29.5 -1.4 11 16.5 E 7 11 4 6 1004.5 1003.8 0.0
19/05:00pm 31.5 27.6 -1.3 12 15.6 ENE 9 13 5 7 1005.0 1004.4 0.0
19/04:30pm 31.4 27.7 -2.6 11 15.8 SSW 7 13 4 7 1005.6 1005.0 0.0
19/04:00pm 30.6 26.5 -3.2 11 15.5 N 9 15 5 8 1006.3 1005.7 0.0
19/03:30pm 31.1 26.9 -4.1 10 15.9 WNW 9 17 5 9 1006.9 1006.3 0.0
19/03:00pm 30.4 26.1 -4.6 10 15.6 N 9 17 5 9 1007.2 1006.6 0.0
19/02:30pm 30.0 25.3 -4.9 10 15.4 NW 11 17 6 9 1008.0 1007.4 0.0
19/02:00pm 27.8 23.1 -5.3 11 14.3 SSE 11 17 6 9 1008.6 1008.0 0.0
19/01:30pm 28.3 24.4 -1.7 14 13.8 NNE 9 15 5 8 1009.3 1008.7 0.0
19/01:00pm 26.5 22.4 -3.1 14 13.1 ENE 9 15 5 8 1009.9 1009.3 0.0
19/12:30pm 26.1 21.7 -2.5 15 12.8 NE 11 17 6 9 1010.8 1010.1 0.0
19/12:00pm 25.2 21.3 -1.6 17 12.1 SSE 9 15 5 8 1011.1 1010.4 0.0
19/11:30am 24.3 20.4 -1.5 18 11.5 SE 9 17 5 9 1011.5 1010.9 0.0
19/11:00am 23.0 19.0 0.2 22 10.4 ESE 11 19 6 10 1011.7 1011.1 0.0
19/10:30am 21.3 18.0 4.4 33 8.3 SE 11 17 6 9 1012.0 1011.4 0.0
19/10:00am 19.2 16.0 4.9 39 7.0 ESE 11 15 6 8 1012.3 1011.7 0.0
19/09:30am 18.0 14.2 5.9 45 6.0 SE 15 19 8 10 1012.4 1011.8 0.0
19/09:00am 16.4 12.4 6.5 52 4.9 SE 17 24 9 13 1012.7 1012.1 0.0
19/08:30am 14.9 11.0 7.0 59 3.9 SE 17 24 9 13 1012.8 1012.2 0.0
19/08:00am 13.3 9.4 7.1 66 3.0 SSE 17 22 9 12 1012.7 1012.1 0.0
19/07:30am 12.1 9.8 7.6 74 2.2 SSE 9 17 5 9 1012.9 1012.3 0.0
19/07:00am 10.3 8.0 7.4 82 1.4 SSE 9 13 5 7 1012.5 1011.9 0.0
19/06:30am 8.9 6.3 6.2 83 1.2 SSE 9 15 5 8 1012.2 1011.6 0.0
19/06:00am 9.7 6.4 6.6 81 1.5 SSE 13 15 7 8 1012.3 1011.7 0.0
19/05:30am 10.3 7.1 7.0 80 1.6 SSE 13 20 7 11 1012.3 1011.7 0.0
19/05:00am 10.2 7.3 6.7 79 1.7 SSE 11 15 6 8 1012.6 1012.0 0.0
19/04:30am 10.7 7.9 6.8 77 1.9 SSE 11 17 6 9 1012.5 1011.9 0.0
19/04:00am 11.0 8.1 6.7 75 2.0 S 11 15 6 8 1012.8 1012.2 0.0
19/03:30am 11.2 7.9 6.5 73 2.2 SSE 13 24 7 13 1012.9 1012.3 0.0
19/03:00am 11.5 7.9 6.8 73 2.3 SSE 15 20 8 11 1013.1 1012.5 0.0
19/02:30am 11.8 8.4 6.1 68 2.7 SSE 13 19 7 10 1013.5 1012.9 0.0
19/02:00am 12.3 8.5 5.7 64 3.1 SSE 15 20 8 11 1013.7 1013.1 0.0
19/01:30am 13.0 8.7 5.2 59 3.6 SSE 17 24 9 13 1013.8 1013.2 0.0
19/01:00am 13.0 9.4 5.2 59 3.6 SSE 13 17 7 9 1014.2 1013.6 0.0
19/12:30am 13.5 10.4 5.7 59 3.7 SSE 11 19 6 10 1014.4 1013.8 0.0
19/12:00am 15.4 12.1 6.4 55 4.4 SE 13 20 7 11 1014.5 1013.9 0.0
 
Date/Time
EDT
Temp
°C
App
Temp
°C
Dew
Point
°C
Rel
Hum
%
Delta-T
°C
Wind Press
QNH
hPa
Press
MSL
hPa
Rain since
9am
mm
Dir  Spd
km/h
Gust
km/h
Spd
kts
Gust
kts
18/11:30pm 16.6 12.6 6.7 52 4.9 SE 17 26 9 14 1014.5 1013.9 0.0
18/11:00pm 17.5 14.0 7.0 50 5.3 SE 15 22 8 12 1014.6 1014.0 0.0
18/10:30pm 18.3 14.3 6.8 47 5.8 SSE 17 22 9 12 1014.1 1013.5 0.0
18/10:00pm 19.4 15.4 6.8 44 6.4 SE 17 24 9 13 1013.7 1013.1 0.0
18/09:30pm 20.8 16.6 5.6 37 7.6 SSE 17 24 9 13 1013.4 1012.8 0.0
18/09:00pm 21.7 18.4 4.3 32 8.5 S 11 19 6 10 1013.1 1012.5 0.0
18/08:30pm 23.1 18.5 3.6 28 9.5 SSE 17 24 9 13 1012.9 1012.3 0.0
18/08:00pm 24.1 19.1 3.4 26 10.1 SSE 19 30 10 16 1012.8 1012.2 0.0
18/07:30pm 25.5 19.8 2.9 23 11.1 SSE 22 33 12 18 1012.4 1011.8 0.0
18/07:00pm 26.5 20.9 3.7 23 11.4 SSE 22 33 12 18 1012.0 1011.4 0.0
18/06:30pm 27.4 21.9 3.8 22 11.9 SSE 22 32 12 17 1011.9 1011.3 0.0
18/06:00pm 28.2 24.6 5.1 23 12.0 S 13 22 7 12 1011.7 1011.1 0.0
18/05:30pm 27.8 24.2 6.6 26 11.3 SSE 15 24 8 13 1012.2 1011.6 0.0
18/05:00pm 27.7 23.9 5.9 25 11.4 S 15 22 8 12 1012.2 1011.6 0.0
18/04:30pm 27.5 23.9 6.8 27 11.0 S 15 22 8 12 1012.2 1011.6 0.0
18/04:00pm 27.9 24.3 6.6 26 11.3 S 15 24 8 13 1012.5 1011.9 0.0
18/03:30pm 26.4 23.3 7.4 30 10.1 SSW 13 20 7 11 1013.0 1012.4 0.0
18/03:00pm 26.3 23.1 6.9 29 10.3 S 13 28 7 15 1013.4 1012.8 0.0
18/02:30pm 24.1 20.5 6.8 33 9.0 SSW 15 24 8 13 1013.7 1013.1 0.0
18/02:00pm 23.8 20.5 6.6 33 8.9 SSW 13 24 7 13 1014.6 1014.0 0.0
18/01:30pm 23.2 19.7 7.3 36 8.3 SSE 15 28 8 15 1014.2 1013.6 0.0

Other Formats:

Comma delimited format used in spreadsheet applications
http://www.bom.gov.au/fwo/IDV60801/IDV60801.94839.axf

JavaScript Object Notation format (JSON) in row-major order
http://www.bom.gov.au/fwo/IDV60801/IDV60801.94839.json